Time;durP1;ratioP1;P1;durP2;ratioP2;P2;SDS_P1;SDS_P2;PMS_P1;PMS_P2;Temp;Humidity;BMP_temperature;BMP_pressure;BME280_temperature;BME280_humidity;BME280_pressure;Samples;Min_cycle;Max_cycle;Signal;HPM_P1;HPM_P2
2023/08/27 00:01:22;;;;;;;2.13;1.08;;;18.10;96.40;;;;;;4068549;29;20470;-58
2023/08/27 00:03:24;;;;;;;2.33;1.20;;;18.10;96.60;;;;;;4067424;29;20052;-58
2023/08/27 00:05:28;;;;;;;2.00;0.80;;;18.10;96.70;;;;;;4068324;29;20048;-58
2023/08/27 00:07:30;;;;;;;1.73;1.00;;;18.00;96.70;;;;;;4068164;29;20127;-57
2023/08/27 00:09:32;;;;;;;1.20;0.70;;;18.00;96.70;;;;;;4068339;29;20066;-58
2023/08/27 00:11:34;;;;;;;1.77;0.80;;;18.00;96.80;;;;;;4067398;29;20052;-63
2023/08/27 00:13:36;;;;;;;2.55;0.95;;;18.00;96.70;;;;;;4067974;29;20056;-57
2023/08/27 00:15:45;;;;;;;1.85;0.85;;;17.90;96.50;;;;;;4068368;29;20107;-57
2023/08/27 00:17:47;;;;;;;1.10;0.80;;;17.90;96.70;;;;;;4068168;29;20092;-57
2023/08/27 00:19:50;;;;;;;1.08;0.75;;;17.90;96.60;;;;;;4067804;29;20495;-58
2023/08/27 00:21:53;;;;;;;1.42;0.85;;;17.90;96.30;;;;;;4067446;29;20071;-58
2023/08/27 00:23:55;;;;;;;1.80;0.77;;;17.90;96.50;;;;;;4067959;29;20438;-57
2023/08/27 00:25:57;;;;;;;1.55;0.88;;;17.80;96.50;;;;;;4067923;29;20402;-58
2023/08/27 00:27:59;;;;;;;1.33;0.73;;;17.80;96.30;;;;;;4068085;29;20087;-58
2023/08/27 00:30:06;;;;;;;1.67;0.70;;;17.80;96.70;;;;;;4068362;29;20074;-58
2023/08/27 00:32:08;;;;;;;1.40;0.82;;;17.70;96.60;;;;;;4067913;29;20545;-57
2023/08/27 00:34:32;;;;;;;1.48;0.80;;;17.70;96.60;;;;;;4067633;29;20052;-55
2023/08/27 00:36:34;;;;;;;1.40;0.80;;;17.80;96.70;;;;;;4067916;29;20052;-58
2023/08/27 00:38:37;;;;;;;1.52;0.80;;;17.80;96.70;;;;;;4067998;29;20388;-57
2023/08/27 00:40:40;;;;;;;2.95;1.13;;;17.80;96.70;;;;;;4068017;29;20395;-54
2023/08/27 00:42:42;;;;;;;2.30;0.82;;;17.70;96.70;;;;;;4066899;29;20138;-58
2023/08/27 00:44:44;;;;;;;1.75;0.80;;;17.60;97.20;;;;;;4067850;29;20144;-57
2023/08/27 00:46:47;;;;;;;3.80;1.25;;;17.60;97.20;;;;;;4067767;29;20063;-57
2023/08/27 00:48:49;;;;;;;2.50;1.10;;;17.60;97.40;;;;;;4066269;29;20060;-57
2023/08/27 00:50:51;;;;;;;2.65;1.00;;;17.60;97.60;;;;;;4068828;29;20048;-59
2023/08/27 00:52:54;;;;;;;3.08;1.27;;;17.60;97.80;;;;;;4066822;29;20581;-57
2023/08/27 00:55:00;;;;;;;2.08;1.00;;;17.60;97.90;;;;;;4067718;29;20052;-57
2023/08/27 00:57:03;;;;;;;1.50;0.90;;;17.60;97.90;;;;;;4067808;29;20060;-58
2023/08/27 00:59:05;;;;;;;2.40;1.15;;;17.60;98.30;;;;;;4067706;29;20052;-59
2023/08/27 01:01:07;;;;;;;1.98;1.23;;;17.60;98.10;;;;;;4067670;29;20054;-58
2023/08/27 01:03:10;;;;;;;4.50;1.20;;;17.60;98.30;;;;;;4066580;29;20044;-57
2023/08/27 01:05:12;;;;;;;1.92;1.48;;;17.60;98.40;;;;;;4067788;29;20044;-58
2023/08/27 01:07:23;;;;;;;1.80;1.20;;;17.60;98.30;;;;;;4067804;29;20052;-55
2023/08/27 01:09:32;;;;;;;2.42;1.27;;;17.60;98.30;;;;;;4067950;29;20058;-58
2023/08/27 01:11:44;;;;;;;1.75;1.10;;;17.60;98.50;;;;;;4068335;29;20124;-58
2023/08/27 01:13:52;;;;;;;5.15;1.50;;;17.60;98.50;;;;;;4066803;29;20052;-57
2023/08/27 01:15:58;;;;;;;4.28;1.38;;;17.50;98.70;;;;;;4067632;29;20052;-57
2023/08/27 01:18:02;;;;;;;1.58;1.02;;;17.50;98.50;;;;;;4067189;29;20132;-58
2023/08/27 01:20:06;;;;;;;2.15;1.27;;;17.50;98.50;;;;;;4067942;29;20079;-58
2023/08/27 01:22:10;;;;;;;2.45;1.17;;;17.50;98.30;;;;;;4066556;29;20182;-56
2023/08/27 01:24:12;;;;;;;1.80;1.23;;;17.50;98.40;;;;;;4067503;29;20052;-55
2023/08/27 01:26:22;;;;;;;1.90;1.00;;;17.40;98.30;;;;;;4067662;29;20491;-57
2023/08/27 01:28:31;;;;;;;1.30;0.90;;;17.50;98.30;;;;;;4067615;29;20384;-58
2023/08/27 01:30:39;;;;;;;2.60;1.20;;;17.40;98.20;;;;;;4067936;29;20100;-57
2023/08/27 01:32:46;;;;;;;2.53;1.10;;;17.40;98.40;;;;;;4066179;29;20110;-58
2023/08/27 01:34:48;;;;;;;3.72;1.17;;;17.40;98.10;;;;;;4067630;29;20051;-57
2023/08/27 01:36:51;;;;;;;1.95;1.00;;;17.40;98.20;;;;;;4067518;29;20059;-57
2023/08/27 01:38:56;;;;;;;2.90;0.98;;;17.30;98.20;;;;;;4067653;29;20405;-57
2023/08/27 01:40:59;;;;;;;2.13;0.90;;;17.40;98.20;;;;;;4067458;29;20060;-55
2023/08/27 01:43:01;;;;;;;1.77;1.20;;;17.40;98.20;;;;;;4066584;29;20055;-58
2023/08/27 01:45:05;;;;;;;2.10;1.20;;;17.30;98.10;;;;;;4067518;29;20411;-58
2023/08/27 01:47:07;;;;;;;1.20;0.95;;;17.30;98.30;;;;;;4066986;29;20065;-58
2023/08/27 01:49:09;;;;;;;3.55;1.10;;;17.30;98.30;;;;;;4067633;29;20384;-56
2023/08/27 01:51:11;;;;;;;2.20;1.08;;;17.30;98.20;;;;;;4067743;29;20052;-55
2023/08/27 01:53:13;;;;;;;2.17;1.23;;;17.30;98.30;;;;;;4066460;29;20610;-56
2023/08/27 01:55:17;;;;;;;2.83;1.25;;;17.30;98.40;;;;;;4068319;29;20498;-55
2023/08/27 01:57:19;;;;;;;1.98;0.93;;;17.30;98.40;;;;;;4070351;29;20098;-56
2023/08/27 01:59:21;;;;;;;2.85;1.08;;;17.30;98.50;;;;;;4070202;29;20048;-56
2023/08/27 02:01:23;;;;;;;3.13;1.25;;;17.30;98.40;;;;;;4070264;29;20108;-56
2023/08/27 02:03:25;;;;;;;1.85;1.13;;;17.30;98.40;;;;;;4070080;29;20054;-56
2023/08/27 02:05:27;;;;;;;1.98;0.93;;;17.30;98.50;;;;;;4071314;29;20095;-58
2023/08/27 02:07:30;;;;;;;2.53;1.02;;;17.30;98.50;;;;;;4071839;29;20136;-58
2023/08/27 02:09:32;;;;;;;3.08;1.10;;;17.30;98.60;;;;;;4070478;29;20062;-59
2023/08/27 02:11:36;;;;;;;2.58;1.13;;;17.30;98.60;;;;;;4071110;29;20502;-56
2023/08/27 02:13:38;;;;;;;2.58;1.10;;;17.30;98.70;;;;;;4069343;29;20067;-56
2023/08/27 02:15:42;;;;;;;2.95;1.00;;;17.30;98.70;;;;;;4068350;29;20070;-56
2023/08/27 02:17:44;;;;;;;4.35;1.38;;;17.20;98.70;;;;;;4070001;29;20040;-56
2023/08/27 02:19:46;;;;;;;1.50;0.98;;;17.20;99.10;;;;;;4069793;29;20107;-56
2023/08/27 02:21:48;;;;;;;2.33;1.35;;;17.20;98.90;;;;;;4070063;29;20079;-58
2023/08/27 02:23:50;;;;;;;2.53;1.30;;;17.20;98.90;;;;;;4068981;29;20123;-56
2023/08/27 02:25:52;;;;;;;4.13;1.00;;;17.20;98.90;;;;;;4070167;29;20058;-56
2023/08/27 02:27:55;;;;;;;2.35;0.88;;;17.20;98.80;;;;;;4070445;29;20067;-57
2023/08/27 02:29:57;;;;;;;1.50;0.90;;;17.20;98.70;;;;;;4070905;29;20060;-58
2023/08/27 02:32:00;;;;;;;2.97;1.20;;;17.10;98.80;;;;;;4070499;29;20459;-56
2023/08/27 02:34:03;;;;;;;3.28;1.40;;;17.10;98.90;;;;;;4069800;29;20052;-56
2023/08/27 02:36:05;;;;;;;2.78;0.90;;;17.10;98.90;;;;;;4070050;29;20107;-58
2023/08/27 02:38:07;;;;;;;2.60;1.08;;;17.10;98.90;;;;;;4069901;29;20554;-56
2023/08/27 02:40:10;;;;;;;3.70;1.08;;;17.10;99.00;;;;;;4069609;29;20083;-58
2023/08/27 02:42:12;;;;;;;3.47;1.33;;;17.10;99.10;;;;;;4068876;29;20052;-54
2023/08/27 02:44:17;;;;;;;2.63;1.10;;;17.10;99.30;;;;;;4069259;29;20052;-58
2023/08/27 02:46:19;;;;;;;3.55;1.50;;;17.00;99.30;;;;;;4069497;29;20052;-58
2023/08/27 02:48:21;;;;;;;3.90;1.30;;;17.00;99.20;;;;;;4069655;29;20490;-59
2023/08/27 02:50:23;;;;;;;1.88;1.00;;;17.00;99.30;;;;;;4070744;29;20079;-58
2023/08/27 02:52:25;;;;;;;3.28;1.10;;;16.90;99.20;;;;;;4068737;29;20052;-58
2023/08/27 02:54:28;;;;;;;4.00;1.20;;;16.90;99.30;;;;;;4069885;29;20403;-59
2023/08/27 02:56:30;;;;;;;4.07;1.75;;;16.90;99.30;;;;;;4069593;29;20048;-58
2023/08/27 02:58:32;;;;;;;5.72;1.40;;;16.90;99.30;;;;;;4069137;29;20052;-58
2023/08/27 03:00:39;;;;;;;2.10;1.45;;;16.90;99.50;;;;;;4069309;29;20127;-59
2023/08/27 03:02:40;;;;;;;3.05;1.50;;;16.90;99.40;;;;;;4068403;29;20049;-58
2023/08/27 03:04:42;;;;;;;2.33;1.10;;;16.80;99.50;;;;;;4068954;29;20058;-58
2023/08/27 03:06:44;;;;;;;2.90;1.30;;;16.80;99.90;;;;;;4068283;29;20063;-58
2023/08/27 03:08:47;;;;;;;3.33;1.23;;;16.70;99.70;;;;;;4069571;29;20052;-58
2023/08/27 03:10:49;;;;;;;4.20;1.40;;;16.70;99.80;;;;;;4069460;29;20055;-58
2023/08/27 03:12:51;;;;;;;4.50;1.48;;;16.70;99.60;;;;;;4068120;29;20521;-59
2023/08/27 03:14:53;;;;;;;3.88;1.27;;;16.70;99.50;;;;;;4068588;29;20463;-56
2023/08/27 03:16:57;;;;;;;3.30;1.27;;;16.70;99.60;;;;;;4068932;29;20117;-56
2023/08/27 03:18:59;;;;;;;2.97;1.20;;;16.70;99.60;;;;;;4068792;29;20134;-58
2023/08/27 03:21:01;;;;;;;3.95;1.05;;;16.70;99.80;;;;;;4067846;29;20143;-58
2023/08/27 03:23:04;;;;;;;4.85;1.45;;;16.70;99.80;;;;;;4067986;29;20063;-57
2023/08/27 03:25:08;;;;;;;5.93;1.35;;;16.70;99.60;;;;;;4068707;29;20169;-58
2023/08/27 03:27:10;;;;;;;2.28;1.20;;;16.70;99.70;;;;;;4068766;29;20050;-58
2023/08/27 03:29:12;;;;;;;3.13;1.25;;;16.70;99.70;;;;;;4068906;29;20083;-60
2023/08/27 03:31:14;;;;;;;3.90;1.35;;;16.70;99.70;;;;;;4069366;29;20128;-61
2023/08/27 03:33:18;;;;;;;3.13;1.10;;;16.70;99.80;;;;;;4067764;29;20138;-58
2023/08/27 03:35:20;;;;;;;3.60;1.50;;;16.60;99.80;;;;;;4068593;29;20048;-58
2023/08/27 03:37:22;;;;;;;4.95;1.45;;;16.60;99.80;;;;;;4068581;29;20058;-58
2023/08/27 03:39:24;;;;;;;3.15;1.50;;;16.60;99.80;;;;;;4068718;29;20470;-58
2023/08/27 03:41:26;;;;;;;4.40;1.35;;;16.50;99.90;;;;;;4068578;29;20048;-58
2023/08/27 03:43:28;;;;;;;8.00;1.30;;;16.60;99.90;;;;;;4067616;29;20052;-58
2023/08/27 03:45:38;;;;;;;4.07;1.40;;;16.50;99.90;;;;;;4068490;29;20048;-58
2023/08/27 03:47:40;;;;;;;;;;;16.50;99.90;;;;;;4069087;29;20048;-57
2023/08/27 03:49:43;;;;;;;6.05;1.25;;;16.50;99.90;;;;;;4069448;29;20304;-58
2023/08/27 03:51:45;;;;;;;4.80;1.67;;;16.40;99.90;;;;;;4068634;29;20095;-58
2023/08/27 03:53:48;;;;;;;2.88;1.52;;;16.40;99.90;;;;;;4067698;29;20501;-58
2023/08/27 03:55:50;;;;;;;3.97;1.42;;;16.40;99.90;;;;;;4068603;29;20107;-56
2023/08/27 03:57:52;;;;;;;4.22;1.67;;;16.40;99.90;;;;;;4068344;29;20050;-56
2023/08/27 03:59:54;;;;;;;7.00;1.83;;;16.40;99.90;;;;;;4068339;29;20123;-58
2023/08/27 04:01:56;;;;;;;4.70;1.48;;;16.50;99.90;;;;;;4068614;29;20127;-58
2023/08/27 04:03:59;;;;;;;3.92;1.40;;;16.50;99.90;;;;;;4067538;29;20509;-63
2023/08/27 04:06:05;;;;;;;4.03;1.30;;;16.50;99.90;;;;;;4067511;29;20048;-58
2023/08/27 04:08:07;;;;;;;3.70;1.20;;;16.40;99.90;;;;;;4068377;29;20131;-59
2023/08/27 04:10:09;;;;;;;5.60;1.60;;;16.40;99.90;;;;;;4071539;29;20052;-64
2023/08/27 04:12:11;;;;;;;4.78;1.38;;;16.40;99.90;;;;;;4070885;29;20052;-58
2023/08/27 04:14:13;;;;;;;3.13;1.20;;;16.40;99.90;;;;;;4069677;29;20136;-55
2023/08/27 04:16:15;;;;;;;6.10;2.30;;;16.40;99.90;;;;;;4072549;29;20282;-56
2023/08/27 04:18:17;;;;;;;7.80;1.45;;;16.40;99.90;;;;;;4071517;29;20127;-56
2023/08/27 04:20:19;;;;;;;2.70;1.23;;;16.40;99.90;;;;;;4072016;29;20051;-56
2023/08/27 04:22:23;;;;;;;6.75;1.75;;;16.30;99.90;;;;;;4069545;29;20341;-56
2023/08/27 04:24:28;;;;;;;7.00;1.80;;;16.40;99.90;;;;;;4067760;29;20044;-57
2023/08/27 04:26:30;;;;;;;3.00;1.48;;;16.30;99.90;;;;;;4068744;29;20052;-55
2023/08/27 04:28:32;;;;;;;2.95;1.23;;;16.30;99.90;;;;;;4068733;29;20052;-62
2023/08/27 04:30:34;;;;;;;3.78;1.52;;;16.30;99.90;;;;;;4070040;29;20052;-56
2023/08/27 04:32:36;;;;;;;3.33;1.20;;;16.30;99.90;;;;;;4068576;29;20081;-58
2023/08/27 04:34:39;;;;;;;4.60;1.50;;;16.30;99.90;;;;;;4069050;29;20150;-56
2023/08/27 04:36:40;;;;;;;4.82;1.73;;;16.20;99.90;;;;;;4068369;29;20066;-56
2023/08/27 04:38:44;;;;;;;5.00;1.30;;;16.20;99.90;;;;;;4068197;29;20135;-56
2023/08/27 04:40:50;;;;;;;2.55;1.20;;;16.20;99.90;;;;;;4068052;29;20103;-55
2023/08/27 04:42:52;;;;;;;3.20;1.40;;;16.10;99.90;;;;;;4066983;29;20103;-56
2023/08/27 04:44:54;;;;;;;4.18;1.77;;;16.10;99.90;;;;;;4068314;29;20127;-56
2023/08/27 04:46:56;;;;;;;6.25;1.45;;;16.10;99.90;;;;;;4069537;29;20206;-56
2023/08/27 04:49:00;;;;;;;3.90;1.40;;;16.20;99.90;;;;;;4068901;29;20076;-56
2023/08/27 04:51:02;;;;;;;2.75;1.27;;;16.20;99.90;;;;;;4068510;29;20064;-56
2023/08/27 04:53:04;;;;;;;5.47;1.60;;;16.20;99.90;;;;;;4067202;29;20550;-55
2023/08/27 04:55:09;;;;;;;4.95;1.42;;;16.20;99.90;;;;;;4067814;29;20435;-58
2023/08/27 04:57:11;;;;;;;4.07;1.60;;;16.20;99.90;;;;;;4068019;29;20132;-58
2023/08/27 04:59:13;;;;;;;4.60;1.65;;;16.20;99.90;;;;;;4067708;29;20104;-58
2023/08/27 05:01:16;;;;;;;4.93;1.70;;;16.20;99.90;;;;;;4067971;29;20052;-58
2023/08/27 05:03:18;;;;;;;5.03;1.38;;;16.20;99.90;;;;;;4065689;29;20052;-58
2023/08/27 05:05:21;;;;;;;5.35;1.40;;;16.20;99.90;;;;;;4067818;29;20171;-58
2023/08/27 05:07:23;;;;;;;4.97;1.50;;;16.20;99.90;;;;;;4067647;29;20108;-59
2023/08/27 05:09:25;;;;;;;4.13;1.40;;;16.20;99.90;;;;;;4067801;29;20054;-58
2023/08/27 05:11:29;;;;;;;8.95;1.90;;;16.20;99.90;;;;;;4068362;29;20052;-58
2023/08/27 05:13:31;;;;;;;4.53;1.50;;;16.20;99.90;;;;;;4066497;29;20368;-58
2023/08/27 05:15:33;;;;;;;5.50;1.58;;;16.20;99.90;;;;;;4067667;29;20064;-58
2023/08/27 05:17:35;;;;;;;7.43;1.40;;;16.20;99.90;;;;;;4067806;29;20055;-58
2023/08/27 05:19:37;;;;;;;4.90;1.58;;;16.20;99.90;;;;;;4067576;29;20123;-58
2023/08/27 05:21:39;;;;;;;9.05;1.70;;;16.30;99.90;;;;;;4067500;29;20076;-58
2023/08/27 05:23:41;;;;;;;7.65;2.00;;;16.20;99.90;;;;;;4066204;29;20099;-58
2023/08/27 05:25:44;;;;;;;8.50;1.65;;;16.20;99.90;;;;;;4067737;29;20040;-58
2023/08/27 05:27:47;;;;;;;4.40;1.80;;;16.20;99.90;;;;;;4067610;29;20054;-58
2023/08/27 05:29:49;;;;;;;4.93;1.40;;;16.20;99.90;;;;;;4068215;29;20152;-59
2023/08/27 05:31:52;;;;;;;5.65;2.00;;;16.20;99.90;;;;;;4071222;29;20121;-58
2023/08/27 05:33:54;;;;;;;5.88;1.38;;;16.20;99.90;;;;;;4069518;29;20062;-58
2023/08/27 05:35:56;;;;;;;8.95;1.60;;;16.20;99.90;;;;;;4070390;29;20427;-58
2023/08/27 05:37:59;;;;;;;9.85;2.03;;;16.30;99.90;;;;;;4070672;29;20677;-57
2023/08/27 05:40:01;;;;;;;4.20;1.27;;;16.20;99.90;;;;;;4070477;29;20055;-58
2023/08/27 05:42:04;;;;;;;3.53;1.60;;;16.20;99.90;;;;;;4070575;29;20148;-56
2023/08/27 05:44:07;;;;;;;4.15;1.50;;;16.20;99.90;;;;;;4069293;29;20076;-55
2023/08/27 05:46:10;;;;;;;6.65;1.65;;;16.10;99.90;;;;;;4070488;29;20056;-55
2023/08/27 05:48:12;;;;;;;6.75;1.88;;;16.20;99.90;;;;;;4070358;29;20052;-55
2023/08/27 05:50:14;;;;;;;10.20;1.98;;;16.20;99.90;;;;;;4070830;29;20438;-56
2023/08/27 05:52:16;;;;;;;5.75;1.77;;;16.30;99.90;;;;;;4070738;29;20486;-56
2023/08/27 05:54:18;;;;;;;7.90;1.48;;;16.30;99.90;;;;;;4069051;29;20416;-55
2023/08/27 05:56:20;;;;;;;5.47;1.75;;;16.30;99.90;;;;;;4070293;29;20080;-55
2023/08/27 05:58:22;;;;;;;7.35;1.45;;;16.30;99.90;;;;;;4070110;29;20075;-56
2023/08/27 06:00:26;;;;;;;4.35;1.48;;;16.30;99.90;;;;;;4070028;29;20055;-56
2023/08/27 06:02:29;;;;;;;6.03;1.70;;;16.30;99.90;;;;;;4070104;29;20495;-57
2023/08/27 06:04:31;;;;;;;5.53;1.45;;;16.30;99.90;;;;;;4069251;29;20478;-55
2023/08/27 06:06:33;;;;;;;6.85;1.83;;;16.30;99.90;;;;;;4069935;29;20100;-56
2023/08/27 06:08:35;;;;;;;4.00;1.38;;;16.30;99.90;;;;;;4069660;29;20099;-56
2023/08/27 06:10:37;;;;;;;6.47;1.52;;;16.30;99.90;;;;;;4070231;29;20085;-56
2023/08/27 06:12:39;;;;;;;8.45;1.80;;;16.20;99.90;;;;;;4070262;29;20052;-61
2023/08/27 06:14:41;;;;;;;7.82;1.80;;;16.20;99.90;;;;;;4069087;29;20475;-56
2023/08/27 06:16:44;;;;;;;6.68;1.55;;;16.20;99.90;;;;;;4069942;29;20055;-56
2023/08/27 06:18:47;;;;;;;5.22;1.88;;;16.30;99.90;;;;;;4069915;29;20519;-55
2023/08/27 06:20:49;;;;;;;5.95;1.77;;;16.30;99.90;;;;;;4069757;29;20052;-55
2023/08/27 06:22:51;;;;;;;6.18;1.75;;;16.30;99.90;;;;;;4068858;29;20537;-56
2023/08/27 06:24:53;;;;;;;10.00;1.70;;;16.30;99.90;;;;;;4069589;29;20044;-55
2023/08/27 06:26:57;;;;;;;6.28;1.90;;;16.30;99.90;;;;;;4070573;29;20057;-54
2023/08/27 06:28:59;;;;;;;8.88;2.17;;;16.40;99.90;;;;;;4069794;29;20087;-56
2023/08/27 06:31:01;;;;;;;8.95;1.70;;;16.40;99.90;;;;;;4070446;29;20048;-59
2023/08/27 06:33:05;;;;;;;10.77;2.67;;;16.40;99.90;;;;;;4069909;29;20094;-55
2023/08/27 06:35:09;;;;;;;10.88;1.85;;;16.40;99.90;;;;;;4069702;29;20048;-56
2023/08/27 06:37:11;;;;;;;7.07;1.70;;;16.50;99.90;;;;;;4069542;29;20055;-55
2023/08/27 06:39:13;;;;;;;4.57;1.65;;;16.50;99.90;;;;;;4069564;29;20056;-55
2023/08/27 06:41:15;;;;;;;6.70;1.73;;;16.50;99.90;;;;;;4069255;29;20051;-58
2023/08/27 06:43:17;;;;;;;7.53;1.75;;;16.50;99.90;;;;;;4067510;29;20474;-58
2023/08/27 06:45:19;;;;;;;7.10;1.65;;;16.50;99.90;;;;;;4069524;29;20052;-58
2023/08/27 06:47:22;;;;;;;4.97;1.50;;;16.60;99.90;;;;;;4069508;29;20075;-58
2023/08/27 06:49:25;;;;;;;9.32;1.75;;;16.60;99.90;;;;;;4069578;29;20052;-58
2023/08/27 06:51:28;;;;;;;6.25;1.60;;;16.60;99.90;;;;;;4069767;29;20052;-55
2023/08/27 06:53:30;;;;;;;6.97;2.22;;;16.70;99.90;;;;;;4069172;29;20047;-55
2023/08/27 06:55:32;;;;;;;9.93;1.92;;;16.70;99.90;;;;;;4069554;29;20099;-55
2023/08/27 06:57:34;;;;;;;6.28;1.85;;;16.70;99.90;;;;;;4069762;29;20470;-54
2023/08/27 06:59:36;;;;;;;7.95;1.58;;;16.70;99.50;;;;;;4069118;29;20052;-56
2023/08/27 07:01:41;;;;;;;6.10;1.50;;;16.70;99.60;;;;;;4069511;29;20056;-56
2023/08/27 07:03:43;;;;;;;;;;;16.80;99.70;;;;;;4068726;29;20099;-55
2023/08/27 07:05:46;;;;;;;8.75;1.50;;;16.80;99.50;;;;;;4068723;29;20263;-57
2023/08/27 07:07:48;;;;;;;5.40;1.70;;;16.80;99.70;;;;;;4069228;29;20052;-55
2023/08/27 07:09:50;;;;;;;6.15;1.75;;;16.80;99.70;;;;;;4069315;29;20066;-58
2023/08/27 07:11:53;;;;;;;10.77;1.70;;;16.90;99.30;;;;;;4069369;29;20479;-59
2023/08/27 07:13:55;;;;;;;6.13;1.50;;;16.90;99.50;;;;;;4068595;29;20071;-57
2023/08/27 07:15:58;;;;;;;6.80;1.80;;;16.90;99.20;;;;;;4069272;29;20054;-57
2023/08/27 07:18:01;;;;;;;7.45;1.77;;;16.90;99.40;;;;;;4068856;29;20048;-58
2023/08/27 07:20:11;;;;;;;9.90;1.88;;;17.00;99.20;;;;;;4068723;29;20052;-56
2023/08/27 07:22:14;;;;;;;8.50;2.00;;;17.00;99.00;;;;;;4069079;29;20123;-58
2023/08/27 07:24:16;;;;;;;7.30;1.40;;;17.00;99.10;;;;;;4067912;29;20131;-52
2023/08/27 07:26:19;;;;;;;4.90;1.30;;;17.00;99.10;;;;;;4069036;29;20124;-55
2023/08/27 07:28:21;;;;;;;3.80;1.35;;;17.00;99.10;;;;;;4069124;29;20054;-52
2023/08/27 07:30:23;;;;;;;6.13;1.45;;;17.10;99.00;;;;;;4069089;29;20494;-55
2023/08/27 07:32:25;;;;;;;4.53;1.50;;;17.20;99.00;;;;;;4069601;29;20094;-56
2023/08/27 07:34:27;;;;;;;6.97;1.63;;;17.20;98.80;;;;;;4067021;29;20059;-55
2023/08/27 07:36:29;;;;;;;7.07;1.65;;;17.40;98.90;;;;;;4068794;29;20076;-53
2023/08/27 07:38:40;;;;;;;5.85;1.45;;;17.50;98.70;;;;;;4068774;29;20055;-53
2023/08/27 07:40:43;;;;;;;6.22;1.63;;;17.60;98.20;;;;;;4070138;29;20056;-58
2023/08/27 07:42:45;;;;;;;6.95;1.85;;;17.80;98.40;;;;;;4070135;29;20473;-55
2023/08/27 07:44:47;;;;;;;3.83;1.73;;;17.90;97.90;;;;;;4069313;29;20104;-56
2023/08/27 07:46:49;;;;;;;3.53;1.10;;;18.00;97.80;;;;;;4069833;29;20495;-54
2023/08/27 07:48:51;;;;;;;7.80;1.42;;;18.00;97.70;;;;;;4068928;29;20486;-59
2023/08/27 07:50:53;;;;;;;8.20;1.98;;;18.10;97.60;;;;;;4069857;29;20052;-55
2023/08/27 07:52:56;;;;;;;3.80;1.17;;;18.20;97.50;;;;;;4070110;29;20123;-54
2023/08/27 07:54:59;;;;;;;5.65;1.63;;;18.30;97.30;;;;;;4068995;29;20465;-56
2023/08/27 07:57:02;;;;;;;8.32;1.40;;;18.30;97.40;;;;;;4068700;29;20056;-59
2023/08/27 07:59:04;;;;;;;8.43;2.08;;;18.40;97.40;;;;;;4068507;29;20052;-58
2023/08/27 08:01:07;;;;;;;6.85;1.80;;;18.50;97.10;;;;;;4068574;29;20052;-54
2023/08/27 08:03:09;;;;;;;7.75;1.30;;;18.60;96.70;;;;;;4067728;29;20054;-54
2023/08/27 08:05:12;;;;;;;7.00;1.88;;;18.70;96.80;;;;;;4068074;29;20179;-54
2023/08/27 08:07:14;;;;;;;8.48;1.60;;;18.70;96.90;;;;;;4068539;29;20052;-56
2023/08/27 08:09:16;;;;;;;4.45;1.40;;;18.70;97.00;;;;;;4068112;29;20048;-57
2023/08/27 08:11:20;;;;;;;10.48;1.65;;;18.70;96.80;;;;;;4068351;29;20070;-61
2023/08/27 08:13:22;;;;;;;9.23;1.63;;;18.70;96.50;;;;;;4067704;29;20091;-56
2023/08/27 08:15:24;;;;;;;8.45;1.83;;;18.60;96.90;;;;;;4068067;29;20052;-54
2023/08/27 08:17:27;;;;;;;6.72;1.67;;;18.90;96.60;;;;;;4068372;29;20082;-60
2023/08/27 08:19:44;;;;;;;4.93;1.55;;;18.90;96.40;;;;;;4068396;29;20083;-55
2023/08/27 08:21:47;;;;;;;4.97;1.50;;;19.00;96.30;;;;;;4068502;29;20080;-57
2023/08/27 08:23:49;;;;;;;5.35;1.63;;;18.90;95.90;;;;;;4067465;29;20512;-57
2023/08/27 08:25:51;;;;;;;6.50;1.65;;;19.00;95.80;;;;;;4068343;29;20048;-55
2023/08/27 08:27:55;;;;;;;6.85;1.63;;;19.00;95.90;;;;;;4066733;29;20048;-57
2023/08/27 08:29:57;;;;;;;4.78;1.42;;;18.90;95.70;;;;;;4068092;29;20506;-55
2023/08/27 08:32:00;;;;;;;7.57;1.80;;;18.80;95.70;;;;;;4068247;29;20432;-57
2023/08/27 08:34:03;;;;;;;3.40;1.20;;;18.90;95.90;;;;;;4067559;29;20419;-59
2023/08/27 08:36:05;;;;;;;6.32;1.65;;;18.90;95.90;;;;;;4068251;29;20107;-55
2023/08/27 08:38:07;;;;;;;4.93;1.38;;;19.10;96.10;;;;;;4068472;29;20421;-56
2023/08/27 08:40:11;;;;;;;6.50;1.63;;;19.10;95.50;;;;;;4068133;29;20086;-57
2023/08/27 08:42:23;;;;;;;5.30;1.48;;;19.00;95.70;;;;;;4068300;29;20058;-55
2023/08/27 08:44:32;;;;;;;4.03;1.20;;;19.10;95.60;;;;;;4066737;29;20148;-57
2023/08/27 08:46:37;;;;;;;5.60;1.70;;;19.20;95.80;;;;;;4067838;29;20068;-58
2023/08/27 08:48:41;;;;;;;6.97;1.35;;;19.30;95.60;;;;;;4067661;29;20056;-54
2023/08/27 08:50:44;;;;;;;6.15;1.42;;;19.50;95.30;;;;;;4067855;29;20051;-53
2023/08/27 08:52:49;;;;;;;4.65;1.17;;;19.60;95.20;;;;;;4068182;29;20448;-55
2023/08/27 08:54:53;;;;;;;10.85;1.60;;;19.50;94.70;;;;;;4067185;29;20415;-53
2023/08/27 08:57:00;;;;;;;7.30;1.40;;;19.60;94.70;;;;;;4068062;29;20567;-55
2023/08/27 08:59:05;;;;;;;3.63;0.85;;;19.60;94.70;;;;;;4067579;29;20056;-54
2023/08/27 09:01:08;;;;;;;3.13;1.10;;;19.70;94.40;;;;;;4067480;29;20044;-55
2023/08/27 09:03:11;;;;;;;7.28;1.40;;;19.80;94.00;;;;;;4067674;29;20081;-55
2023/08/27 09:05:17;;;;;;;5.68;1.42;;;20.00;94.20;;;;;;4069151;29;20044;-55
2023/08/27 09:07:20;;;;;;;2.65;1.15;;;20.10;94.10;;;;;;4070942;29;20428;-55
2023/08/27 09:09:23;;;;;;;4.25;1.30;;;20.20;94.00;;;;;;4070640;29;20051;-56
2023/08/27 09:11:26;;;;;;;7.13;1.00;;;20.10;93.70;;;;;;4070954;29;20052;-56
2023/08/27 09:13:29;;;;;;;5.85;1.13;;;20.30;93.70;;;;;;4069880;29;20134;-63
2023/08/27 09:15:31;;;;;;;3.45;1.20;;;20.30;93.30;;;;;;4070275;29;20131;-55
2023/08/27 09:17:35;;;;;;;4.60;1.10;;;20.40;93.50;;;;;;4070848;29;20058;-60
2023/08/27 09:19:37;;;;;;;5.22;1.10;;;20.50;93.30;;;;;;4070828;29;20044;-55
2023/08/27 09:21:41;;;;;;;5.57;1.20;;;20.50;93.20;;;;;;4070814;29;20076;-56
2023/08/27 09:23:43;;;;;;;5.25;1.02;;;20.60;93.40;;;;;;4069750;29;20387;-58
2023/08/27 09:25:45;;;;;;;4.07;1.33;;;20.70;93.30;;;;;;4070490;29;20526;-57
2023/08/27 09:27:47;;;;;;;3.35;1.42;;;20.80;93.20;;;;;;4070431;29;20139;-55
2023/08/27 09:29:52;;;;;;;4.93;1.42;;;20.80;93.00;;;;;;4070661;29;20470;-56
2023/08/27 09:31:56;;;;;;;6.57;1.00;;;20.80;92.80;;;;;;4070316;29;20086;-56
2023/08/27 09:34:00;;;;;;;5.18;1.35;;;20.80;93.20;;;;;;4069558;29;20048;-56
2023/08/27 09:36:02;;;;;;;5.20;1.00;;;20.70;93.00;;;;;;4070556;29;20119;-56
2023/08/27 09:38:05;;;;;;;6.85;1.55;;;20.60;92.90;;;;;;4070380;29;20044;-56
2023/08/27 09:40:09;;;;;;;4.38;1.42;;;20.60;92.80;;;;;;4070410;29;20083;-56
2023/08/27 09:42:12;;;;;;;3.00;1.70;;;20.50;92.80;;;;;;4070516;29;20052;-56
2023/08/27 09:44:14;;;;;;;6.13;1.48;;;20.50;93.00;;;;;;4069252;29;20111;-54
2023/08/27 09:46:17;;;;;;;5.93;1.75;;;20.50;92.90;;;;;;4069895;29;20048;-54
2023/08/27 09:48:23;;;;;;;5.55;1.50;;;20.50;92.90;;;;;;4070288;29;20482;-54
2023/08/27 09:50:32;;;;;;;9.65;1.50;;;20.40;92.90;;;;;;4069967;29;20056;-53
2023/08/27 09:52:39;;;;;;;4.20;1.23;;;20.40;92.70;;;;;;4070323;29;20072;-57
2023/08/27 09:54:43;;;;;;;4.95;1.58;;;20.40;92.60;;;;;;4069311;29;20083;-55
2023/08/27 09:56:46;;;;;;;6.32;1.20;;;20.40;92.70;;;;;;4070298;29;20407;-57
2023/08/27 09:58:48;;;;;;;3.78;1.48;;;20.40;92.30;;;;;;4070234;29;20052;-56
2023/08/27 10:00:58;;;;;;;7.00;1.27;;;20.30;92.40;;;;;;4068497;29;20135;-54
2023/08/27 10:03:00;;;;;;;3.10;0.90;;;20.30;92.50;;;;;;4069997;29;20486;-56
2023/08/27 10:05:08;;;;;;;4.00;1.25;;;20.30;92.50;;;;;;4069250;29;20059;-57
2023/08/27 10:07:14;;;;;;;4.82;1.48;;;20.30;92.50;;;;;;4068945;29;20134;-56
2023/08/27 10:09:16;;;;;;;3.50;1.33;;;20.30;92.60;;;;;;4069896;29;20475;-56
2023/08/27 10:11:22;;;;;;;4.07;1.13;;;20.40;92.60;;;;;;4070035;29;20482;-56
2023/08/27 10:13:27;;;;;;;2.67;1.10;;;20.40;92.50;;;;;;4069914;29;20060;-64
2023/08/27 10:15:30;;;;;;;4.05;1.10;;;20.40;92.20;;;;;;4068399;29;20059;-55
2023/08/27 10:17:32;;;;;;;4.50;1.05;;;20.60;92.00;;;;;;4069816;29;20052;-56
2023/08/27 10:19:35;;;;;;;3.40;0.93;;;20.90;92.10;;;;;;4069952;29;20111;-56
2023/08/27 10:21:37;;;;;;;4.78;1.13;;;21.00;91.70;;;;;;4069893;29;20158;-54
2023/08/27 10:23:42;;;;;;;4.10;1.38;;;21.00;91.50;;;;;;4069119;29;20142;-56
2023/08/27 10:25:46;;;;;;;6.25;1.35;;;21.20;91.30;;;;;;4069546;29;20052;-54
2023/08/27 10:27:50;;;;;;;4.60;1.15;;;21.30;91.30;;;;;;4069772;29;20071;-55
2023/08/27 10:29:52;;;;;;;2.35;0.90;;;21.40;91.20;;;;;;4069259;29;20054;-54
2023/08/27 10:31:55;;;;;;;7.80;1.45;;;21.50;91.10;;;;;;4069917;29;20055;-58
2023/08/27 10:33:57;;;;;;;4.45;1.10;;;21.50;91.40;;;;;;4068861;29;20072;-56
2023/08/27 10:36:03;;;;;;;6.20;1.33;;;21.40;90.90;;;;;;4069985;29;20055;-54
2023/08/27 10:38:07;;;;;;;4.85;1.40;;;21.20;90.70;;;;;;4069583;29;20140;-57
2023/08/27 10:40:13;;;;;;;5.60;1.20;;;21.00;90.60;;;;;;4068183;29;20059;-54
2023/08/27 10:42:29;;;;;;;;;;;20.80;90.50;;;;;;4070036;29;20054;-55